createdAt,value
2023-12-23T00:00:27.302Z,94214.00
2023-12-23T00:01:27.279Z,94212.00
2023-12-23T00:02:27.268Z,94232.00
2023-12-23T00:03:27.326Z,94246.00
2023-12-23T00:04:27.251Z,94249.00
2023-12-23T00:05:27.337Z,94242.00
2023-12-23T00:56:29.207Z,94272.00
2023-12-23T00:57:26.780Z,94275.00
2023-12-23T00:58:26.769Z,94281.00
2023-12-23T00:59:26.769Z,94286.00
2023-12-23T01:00:26.826Z,94288.00
2023-12-23T01:01:26.745Z,94279.00
2023-12-23T01:02:26.734Z,94284.00
2023-12-23T01:03:26.769Z,94287.00
2023-12-23T01:04:26.719Z,94299.00
2023-12-23T01:05:26.713Z,94300.00
2023-12-23T01:06:26.765Z,94285.00
2023-12-23T01:07:26.686Z,94278.00
2023-12-23T01:08:26.713Z,94287.00
2023-12-23T01:09:26.668Z,94286.00
2023-12-23T01:10:26.665Z,94292.00
2023-12-23T01:11:26.663Z,94299.00
2023-12-23T01:12:26.672Z,94309.00
2023-12-23T01:13:26.639Z,94312.00
2023-12-23T01:14:26.623Z,94317.00
2023-12-23T01:15:26.629Z,94318.00
2023-12-23T01:16:26.616Z,94320.00
2023-12-23T01:17:26.599Z,94315.00
2023-12-23T01:18:26.692Z,94321.00
2023-12-23T01:19:26.579Z,94320.00
2023-12-23T01:20:26.694Z,94315.00
2023-12-23T01:21:26.566Z,94314.00
2023-12-23T01:22:26.552Z,94319.00
2023-12-23T01:23:26.585Z,94324.00
2023-12-23T01:24:26.530Z,94330.00
2023-12-23T01:25:26.541Z,94323.00
2023-12-23T01:26:26.511Z,94312.00
2023-12-23T01:27:26.505Z,94307.00
2023-12-23T01:28:26.526Z,94315.00
2023-12-23T01:29:26.506Z,94327.00
2023-12-23T01:30:26.542Z,94335.00
2023-12-23T01:31:26.467Z,94338.00
2023-12-23T01:32:26.517Z,94348.00
2023-12-23T01:33:26.577Z,94350.00
2023-12-23T01:34:26.448Z,94343.00
2023-12-23T01:35:26.524Z,94340.00
2023-12-23T01:36:26.431Z,94349.00
2023-12-23T01:37:26.420Z,94361.00
2023-12-23T01:38:26.448Z,94371.00
2023-12-23T01:39:26.396Z,94361.00
2023-12-23T01:40:26.385Z,94344.00
2023-12-23T01:41:26.488Z,94332.00
2023-12-23T01:42:26.371Z,94333.00
2023-12-23T01:43:26.374Z,94338.00
2023-12-23T01:44:26.378Z,94347.00
2023-12-23T01:45:26.359Z,94356.00
2023-12-23T01:46:26.329Z,94355.00
2023-12-23T01:47:26.397Z,94357.00
2023-12-23T01:48:26.425Z,94363.00
2023-12-23T01:49:26.832Z,94357.00
2023-12-23T01:50:26.368Z,94372.00
2023-12-23T01:51:26.296Z,94364.00
2023-12-23T01:52:26.289Z,94358.00
2023-12-23T01:53:26.273Z,94342.00
2023-12-23T01:54:26.261Z,94333.00
2023-12-23T01:55:26.275Z,94325.00
2023-12-23T01:56:26.247Z,94327.00
2023-12-23T01:57:26.239Z,94353.00
2023-12-23T01:58:26.230Z,94357.00
2023-12-23T01:59:26.233Z,94350.00
2023-12-23T02:00:26.243Z,94354.00
2023-12-23T02:01:26.287Z,94372.00
2023-12-23T02:02:26.255Z,94384.00
2023-12-23T02:03:26.212Z,94386.00
2023-12-23T02:04:26.170Z,94384.00
2023-12-23T02:05:26.208Z,94381.00
2023-12-23T02:06:26.168Z,94377.00
2023-12-23T02:07:26.151Z,94387.00
2023-12-23T02:08:26.142Z,94389.00
2023-12-23T02:09:26.135Z,94388.00
2023-12-23T02:10:26.122Z,94374.00
2023-12-23T02:11:26.110Z,94374.00
2023-12-23T02:12:26.101Z,94377.00
2023-12-23T02:13:26.092Z,94393.00
2023-12-23T02:14:26.081Z,94376.00
2023-12-23T02:15:26.077Z,94371.00
2023-12-23T02:16:26.095Z,94369.00
2023-12-23T02:17:26.267Z,94371.00
2023-12-23T02:18:28.700Z,94381.00
2023-12-23T02:19:26.041Z,94375.00
2023-12-23T02:20:26.032Z,94372.00
2023-12-23T02:21:26.032Z,94384.00
2023-12-23T02:22:26.012Z,94380.00
2023-12-23T02:23:26.079Z,94378.00
2023-12-23T02:24:25.992Z,94382.00
2023-12-23T02:25:26.004Z,94401.00
2023-12-23T02:26:25.974Z,94403.00
2023-12-23T02:27:25.967Z,94395.00
2023-12-23T02:28:25.962Z,94380.00
2023-12-23T02:29:25.948Z,94386.00
2023-12-23T02:30:25.974Z,94390.00
2023-12-23T02:31:25.929Z,94389.00
2023-12-23T02:32:26.022Z,94407.00
2023-12-23T02:33:25.990Z,94406.00
2023-12-23T02:34:25.896Z,94397.00
2023-12-23T02:35:25.899Z,94402.00
2023-12-23T02:36:25.880Z,94418.00
2023-12-23T02:37:25.886Z,94419.00
2023-12-23T02:38:25.870Z,94424.00
2023-12-23T02:39:25.856Z,94423.00
2023-12-23T02:40:25.858Z,94433.00
2023-12-23T02:41:25.853Z,94440.00
2023-12-23T02:42:25.829Z,94439.00
2023-12-23T02:43:25.823Z,94433.00
2023-12-23T02:44:25.824Z,94441.00
2023-12-23T02:45:25.818Z,94452.00
2023-12-23T02:46:25.789Z,94444.00
2023-12-23T02:47:25.800Z,94443.00
2023-12-23T02:48:25.841Z,94446.00
2023-12-23T02:49:25.765Z,94439.00
2023-12-23T02:50:25.803Z,94436.00
2023-12-23T02:51:25.753Z,94447.00
2023-12-23T02:52:25.747Z,94456.00
2023-12-23T02:53:25.855Z,94451.00
2023-12-23T02:54:25.719Z,94452.00
2023-12-23T02:55:25.713Z,94460.00
2023-12-23T02:56:25.759Z,94476.00
2023-12-23T02:57:25.700Z,94488.00
2023-12-23T02:58:25.725Z,94485.00
2023-12-23T02:59:25.739Z,94467.00
2023-12-23T03:00:25.680Z,94475.00
2023-12-23T03:01:25.681Z,94472.00
2023-12-23T03:02:25.641Z,94484.00
2023-12-23T03:03:25.677Z,94479.00
2023-12-23T03:04:25.645Z,94470.00
2023-12-23T03:05:25.838Z,94469.00
2023-12-23T03:06:25.609Z,94469.00
2023-12-23T03:07:25.605Z,94476.00
2023-12-23T03:08:25.641Z,94485.00
2023-12-23T03:09:25.578Z,94489.00
2023-12-23T03:10:25.600Z,94485.00
2023-12-23T03:11:25.586Z,94484.00
2023-12-23T03:12:25.566Z,94480.00
2023-12-23T03:13:25.545Z,94481.00
2023-12-23T03:14:25.627Z,94486.00
2023-12-23T03:15:25.523Z,94487.00
2023-12-23T03:16:25.529Z,94498.00
2023-12-23T03:17:25.524Z,94498.00
2023-12-23T03:18:25.607Z,94491.00
2023-12-23T03:19:25.500Z,94488.00
2023-12-23T03:20:25.578Z,94484.00
2023-12-23T03:21:25.499Z,94488.00
2023-12-23T03:22:25.469Z,94495.00
2023-12-23T03:23:25.573Z,94485.00
2023-12-23T03:24:25.475Z,94499.00
2023-12-23T03:25:25.434Z,94521.00
2023-12-23T03:26:25.430Z,94520.00
2023-12-23T03:27:25.418Z,94520.00
2023-12-23T03:28:25.450Z,94517.00
2023-12-23T03:29:25.480Z,94516.00
2023-12-23T03:30:25.471Z,94513.00
2023-12-23T03:31:25.394Z,94516.00
2023-12-23T03:32:25.513Z,94516.00
2023-12-23T03:33:25.502Z,94511.00
2023-12-23T03:34:25.358Z,94508.00
2023-12-23T03:35:25.380Z,94516.00
2023-12-23T03:36:25.370Z,94517.00
2023-12-23T03:37:25.874Z,94520.00
2023-12-23T03:38:25.326Z,94523.00
2023-12-23T03:39:25.308Z,94523.00
2023-12-23T03:40:25.310Z,94524.00
2023-12-23T03:41:25.296Z,94528.00
2023-12-23T03:42:25.404Z,94529.00
2023-12-23T03:43:25.274Z,94517.00
2023-12-23T03:44:25.327Z,94521.00
2023-12-23T03:45:25.254Z,94521.00
2023-12-23T03:46:25.269Z,94512.00
2023-12-23T03:47:25.235Z,94513.00
2023-12-23T03:48:25.382Z,94521.00
2023-12-23T03:49:25.217Z,94524.00
2023-12-23T03:50:25.249Z,94511.00
2023-12-23T03:51:25.206Z,94517.00
2023-12-23T03:52:25.215Z,94522.00
2023-12-23T03:53:25.223Z,94549.00
2023-12-23T03:54:25.208Z,94555.00
2023-12-23T03:55:25.164Z,94543.00
2023-12-23T03:56:25.169Z,94541.00
2023-12-23T03:57:25.154Z,94542.00
2023-12-23T03:58:25.159Z,94540.00
2023-12-23T03:59:25.200Z,94535.00
2023-12-23T04:00:25.120Z,94544.00
2023-12-23T04:01:25.113Z,94549.00
2023-12-23T04:02:25.101Z,94540.00
2023-12-23T04:03:25.112Z,94538.00
2023-12-23T04:04:25.083Z,94546.00
2023-12-23T04:05:25.124Z,94567.00
2023-12-23T04:06:25.083Z,94578.00
2023-12-23T04:07:25.067Z,94570.00
2023-12-23T04:08:25.143Z,94565.00
2023-12-23T04:09:25.041Z,94561.00
2023-12-23T04:10:25.033Z,94555.00
2023-12-23T04:11:25.057Z,94558.00
2023-12-23T04:12:25.017Z,94553.00
2023-12-23T04:13:25.014Z,94541.00
2023-12-23T04:14:25.063Z,94556.00
2023-12-23T04:15:24.994Z,94568.00
2023-12-23T04:16:24.985Z,94574.00
2023-12-23T04:17:25.013Z,94576.00
2023-12-23T04:18:25.088Z,94576.00
2023-12-23T04:19:24.964Z,94580.00
2023-12-23T04:20:24.997Z,94577.00
2023-12-23T04:21:24.947Z,94578.00
2023-12-23T04:22:24.926Z,94584.00
2023-12-23T04:23:24.980Z,94578.00
2023-12-23T04:24:24.939Z,94577.00
2023-12-23T04:25:24.901Z,94577.00
2023-12-23T04:26:24.917Z,94580.00
2023-12-23T04:27:24.896Z,94581.00
2023-12-23T04:28:24.871Z,94582.00
2023-12-23T04:29:24.883Z,94581.00
2023-12-23T04:30:24.985Z,94587.00
2023-12-23T04:31:24.958Z,94595.00
2023-12-23T04:32:24.986Z,94597.00
2023-12-23T04:33:24.985Z,94589.00
2023-12-23T04:34:24.829Z,94584.00
2023-12-23T04:35:24.905Z,94592.00
2023-12-23T04:36:24.802Z,94594.00
2023-12-23T04:37:24.845Z,94598.00
2023-12-23T04:38:24.869Z,94595.00
2023-12-23T04:39:24.772Z,94593.00
2023-12-23T04:40:24.786Z,94596.00
2023-12-23T04:41:24.798Z,94594.00
2023-12-23T04:42:24.749Z,94595.00
2023-12-23T04:43:24.753Z,94594.00
2023-12-23T04:44:24.756Z,94596.00
2023-12-23T04:45:24.713Z,94597.00
2023-12-23T04:46:24.708Z,94597.00
2023-12-23T04:47:24.751Z,94597.00
2023-12-23T04:48:24.707Z,94603.00
2023-12-23T04:49:24.678Z,94606.00
2023-12-23T04:50:24.750Z,94600.00
2023-12-23T04:51:24.677Z,94595.00
2023-12-23T04:52:24.660Z,94597.00
2023-12-23T04:53:24.693Z,94600.00
2023-12-23T04:54:24.630Z,94605.00
2023-12-23T04:55:24.642Z,94604.00
2023-12-23T04:56:24.696Z,94597.00
2023-12-23T04:57:24.611Z,94595.00
2023-12-23T04:58:24.607Z,94597.00
2023-12-23T04:59:24.661Z,94603.00
2023-12-23T05:00:24.570Z,94598.00
2023-12-23T05:01:24.586Z,94599.00
2023-12-23T05:02:24.580Z,94602.00
2023-12-23T05:03:24.734Z,94606.00
2023-12-23T05:04:24.555Z,94608.00
2023-12-23T05:05:24.586Z,94614.00
2023-12-23T05:06:24.663Z,94612.00
2023-12-23T05:07:24.538Z,94608.00
2023-12-23T05:08:24.526Z,94606.00
2023-12-23T05:09:24.493Z,94615.00
2023-12-23T05:10:24.495Z,94615.00
2023-12-23T05:11:24.488Z,94620.00
2023-12-23T05:12:24.497Z,94616.00
2023-12-23T05:13:24.539Z,94604.00
2023-12-23T05:14:24.525Z,94608.00
2023-12-23T05:15:24.444Z,94615.00
2023-12-23T05:16:24.446Z,94618.00
2023-12-23T05:17:24.510Z,94617.00
2023-12-23T05:18:24.444Z,94622.00
2023-12-23T05:19:24.412Z,94622.00
2023-12-23T05:20:24.503Z,94619.00
2023-12-23T05:21:24.399Z,94623.00
2023-12-23T05:22:24.382Z,94622.00
2023-12-23T05:23:24.425Z,94624.00
2023-12-23T05:24:24.361Z,94625.00
2023-12-23T05:25:24.362Z,94626.00
2023-12-23T05:26:24.446Z,94622.00
2023-12-23T05:27:24.335Z,94617.00
2023-12-23T05:28:24.420Z,94622.00
2023-12-23T05:29:24.348Z,94620.00
2023-12-23T05:30:24.316Z,94617.00
2023-12-23T05:31:24.299Z,94615.00
2023-12-23T05:32:24.414Z,94618.00
2023-12-23T05:33:24.341Z,94624.00
2023-12-23T05:34:24.438Z,94628.00
2023-12-23T05:35:24.320Z,94620.00
2023-12-23T05:36:24.271Z,94615.00
2023-12-23T05:37:24.244Z,94618.00
2023-12-23T05:38:24.338Z,94620.00
2023-12-23T05:39:24.242Z,94616.00
2023-12-23T05:40:24.237Z,94616.00
2023-12-23T05:41:24.229Z,94615.00
2023-12-23T05:42:24.210Z,94611.00
2023-12-23T05:43:24.241Z,94611.00
2023-12-23T05:44:24.356Z,94614.00
2023-12-23T05:45:24.250Z,94623.00
2023-12-23T05:46:24.188Z,94625.00
2023-12-23T05:47:24.334Z,94619.00
2023-12-23T05:48:24.274Z,94624.00
2023-12-23T05:49:24.924Z,94622.00
2023-12-23T05:50:24.187Z,94620.00
2023-12-23T05:51:24.221Z,94624.00
2023-12-23T05:52:24.290Z,94629.00
2023-12-23T05:53:24.290Z,94636.00
2023-12-23T05:54:24.112Z,94630.00
2023-12-23T05:55:24.165Z,94619.00
2023-12-23T05:56:24.116Z,94620.00
2023-12-23T05:57:24.069Z,94623.00
2023-12-23T05:58:24.066Z,94621.00
2023-12-23T05:59:24.101Z,94627.00
2023-12-23T06:00:24.065Z,94622.00
2023-12-23T06:01:24.046Z,94622.00
2023-12-23T06:02:24.075Z,94627.00
2023-12-23T06:03:24.054Z,94626.00
2023-12-23T06:04:24.003Z,94623.00
2023-12-23T06:05:24.148Z,94623.00
2023-12-23T06:06:24.047Z,94624.00
2023-12-23T06:07:23.993Z,94625.00
2023-12-23T06:08:24.042Z,94624.00
2023-12-23T06:09:23.984Z,94624.00
2023-12-23T06:10:23.950Z,94622.00
2023-12-23T06:11:23.963Z,94619.00
2023-12-23T06:12:23.933Z,94619.00
2023-12-23T06:13:23.935Z,94623.00
2023-12-23T06:14:23.957Z,94623.00
2023-12-23T06:15:23.927Z,94624.00
2023-12-23T06:16:23.926Z,94631.00
2023-12-23T06:17:23.951Z,94634.00
2023-12-23T06:18:23.998Z,94631.00
2023-12-23T06:19:23.911Z,94629.00
2023-12-23T06:20:23.965Z,94633.00
2023-12-23T06:21:23.849Z,94628.00
2023-12-23T06:22:23.949Z,94625.00
2023-12-23T06:23:23.863Z,94630.00
2023-12-23T06:24:23.821Z,94634.00
2023-12-23T06:25:23.837Z,94633.00
2023-12-23T06:26:23.855Z,94630.00
2023-12-23T06:27:23.792Z,94622.00
2023-12-23T06:28:23.804Z,94624.00
2023-12-23T06:29:23.825Z,94632.00
2023-12-23T06:30:23.800Z,94634.00
2023-12-23T06:31:23.825Z,94635.00
2023-12-23T06:32:23.877Z,94640.00
2023-12-23T06:33:23.797Z,94638.00
2023-12-23T06:34:23.734Z,94639.00
2023-12-23T06:35:23.844Z,94639.00
2023-12-23T06:36:23.714Z,94640.00
2023-12-23T06:37:23.705Z,94635.00
2023-12-23T06:38:23.828Z,94632.00
2023-12-23T06:39:23.688Z,94631.00
2023-12-23T06:40:23.973Z,94632.00
2023-12-23T06:41:23.734Z,94629.00
2023-12-23T06:42:23.668Z,94626.00
2023-12-23T06:43:44.991Z,94625.00
2023-12-23T06:44:23.704Z,94628.00
2023-12-23T06:45:23.658Z,94627.00
2023-12-23T06:46:23.626Z,94623.00
2023-12-23T06:47:23.699Z,94620.00
2023-12-23T06:48:23.832Z,94617.00
2023-12-23T06:49:23.780Z,94614.00
2023-12-23T06:50:23.689Z,94614.00
2023-12-23T06:51:23.583Z,94613.00
2023-12-23T06:52:23.578Z,94614.00
2023-12-23T06:53:23.637Z,94614.00
2023-12-23T06:54:23.553Z,94614.00
2023-12-23T06:55:23.547Z,94617.00
2023-12-23T06:56:23.842Z,94617.00
2023-12-23T06:57:23.535Z,94615.00
2023-12-23T06:58:23.515Z,94615.00
2023-12-23T06:59:23.604Z,94618.00
2023-12-23T07:00:23.566Z,94617.00
2023-12-23T07:01:23.560Z,94623.00
2023-12-23T07:02:23.539Z,94626.00
2023-12-23T07:03:23.585Z,94628.00
2023-12-23T07:04:23.496Z,94626.00
2023-12-23T07:05:23.635Z,94624.00
2023-12-23T07:06:23.484Z,94624.00
2023-12-23T07:07:23.537Z,94625.00
2023-12-23T07:08:23.545Z,94630.00
2023-12-23T07:09:23.456Z,94636.00
2023-12-23T07:10:23.478Z,94640.00
2023-12-23T07:11:23.526Z,94639.00
2023-12-23T07:12:23.416Z,94639.00
2023-12-23T07:13:23.471Z,94639.00
2023-12-23T07:14:23.521Z,94641.00
2023-12-23T07:15:23.477Z,94642.00
2023-12-23T07:16:23.453Z,94644.00
2023-12-23T07:17:35.306Z,94643.00
2023-12-23T07:18:23.507Z,94646.00
2023-12-23T07:19:23.372Z,94645.00
2023-12-23T07:20:23.417Z,94648.00
2023-12-23T07:21:23.306Z,94647.00
2023-12-23T07:22:23.305Z,94647.00
2023-12-23T07:23:23.297Z,94647.00
2023-12-23T07:24:23.291Z,94646.00
2023-12-23T07:25:23.335Z,94647.00
2023-12-23T07:26:23.361Z,94650.00
2023-12-23T07:27:23.256Z,94649.00
2023-12-23T07:28:23.252Z,94646.00
2023-12-23T07:29:23.320Z,94646.00
2023-12-23T07:30:23.347Z,94649.00
2023-12-23T07:31:23.221Z,94653.00
2023-12-23T07:32:23.273Z,94653.00
2023-12-23T07:33:23.369Z,94656.00
2023-12-23T07:34:23.195Z,94662.00
2023-12-23T07:35:23.320Z,94663.00
2023-12-23T07:36:23.200Z,94662.00
2023-12-23T07:37:23.163Z,94664.00
2023-12-23T07:38:23.252Z,94669.00
2023-12-23T07:39:23.146Z,94671.00
2023-12-23T07:40:24.177Z,94669.00
2023-12-23T07:41:23.193Z,94670.00
2023-12-23T07:42:23.115Z,94671.00
2023-12-23T07:43:23.110Z,94672.00
2023-12-23T07:44:23.187Z,94673.00
2023-12-23T07:45:23.094Z,94671.00
2023-12-23T07:46:23.088Z,94672.00
2023-12-23T07:47:23.092Z,94677.00
2023-12-23T07:48:23.241Z,94678.00
2023-12-23T07:49:23.062Z,94674.00
2023-12-23T07:50:23.095Z,94676.00
2023-12-23T07:51:23.034Z,94670.00
2023-12-23T07:52:23.063Z,94665.00
2023-12-23T07:53:23.144Z,94669.00
2023-12-23T07:54:23.103Z,94664.00
2023-12-23T07:55:23.007Z,94664.00
2023-12-23T07:56:23.042Z,94668.00
2023-12-23T07:57:22.997Z,94668.00
2023-12-23T07:58:22.978Z,94668.00
2023-12-23T07:59:22.980Z,94665.00
2023-12-23T08:00:22.967Z,94661.00
2023-12-23T08:01:23.040Z,94656.00
2023-12-23T08:02:23.017Z,94652.00
2023-12-23T08:03:23.026Z,94650.00
2023-12-23T08:04:22.930Z,94653.00
2023-12-23T08:05:22.997Z,94661.00
2023-12-23T08:06:22.960Z,94659.00
2023-12-23T08:07:22.901Z,94661.00
2023-12-23T08:08:23.025Z,94660.00
2023-12-23T08:09:22.885Z,94660.00
2023-12-23T08:10:22.870Z,94666.00
2023-12-23T08:11:22.997Z,94666.00
2023-12-23T08:12:22.845Z,94661.00
2023-12-23T08:13:22.862Z,94664.00
2023-12-23T08:14:22.918Z,94661.00
2023-12-23T08:15:22.832Z,94653.00
2023-12-23T08:16:22.819Z,94649.00
2023-12-23T08:17:22.837Z,94654.00
2023-12-23T08:18:22.913Z,94664.00
2023-12-23T08:19:22.873Z,94668.00
2023-12-23T08:20:22.797Z,94665.00
2023-12-23T08:21:22.779Z,94661.00
2023-12-23T08:22:22.761Z,94654.00
2023-12-23T08:23:22.776Z,94649.00
2023-12-23T08:24:22.767Z,94657.00
2023-12-23T08:25:22.740Z,94651.00
2023-12-23T08:26:22.955Z,94637.00
2023-12-23T08:27:22.712Z,94625.00
2023-12-23T08:28:22.705Z,94616.00
2023-12-23T08:29:22.764Z,94618.00
2023-12-23T08:30:22.787Z,94621.00
2023-12-23T08:31:22.678Z,94618.00
2023-12-23T08:32:22.799Z,94610.00
2023-12-23T08:33:22.725Z,94605.00
2023-12-23T08:34:22.833Z,94608.00
2023-12-23T08:35:22.706Z,94612.00
2023-12-23T08:36:22.641Z,94612.00
2023-12-23T08:37:22.623Z,94617.00
2023-12-23T08:38:22.657Z,94622.00
2023-12-23T08:39:22.630Z,94623.00
2023-12-23T08:40:22.644Z,94633.00
2023-12-23T08:41:22.640Z,94631.00
2023-12-23T08:42:22.623Z,94619.00
2023-12-23T08:43:22.568Z,94610.00
2023-12-23T08:44:22.777Z,94609.00
2023-12-23T08:45:22.565Z,94601.00
2023-12-23T08:46:22.548Z,94614.00
2023-12-23T08:47:22.571Z,94637.00
2023-12-23T08:48:22.625Z,94642.00
2023-12-23T08:49:22.592Z,94626.00
2023-12-23T08:50:22.559Z,94609.00
2023-12-23T08:51:22.500Z,94609.00
2023-12-23T08:52:22.481Z,94620.00
2023-12-23T08:53:22.542Z,94622.00
2023-12-23T08:54:22.476Z,94625.00
2023-12-23T08:55:22.459Z,94626.00
2023-12-23T08:56:22.516Z,94620.00
2023-12-23T08:57:22.439Z,94616.00
2023-12-23T08:58:22.450Z,94615.00
2023-12-23T08:59:22.521Z,94607.00
2023-12-23T09:00:21.421Z,94598.00
2023-12-23T09:01:22.407Z,94619.00
2023-12-23T09:02:24.441Z,94630.00
2023-12-23T09:03:25.078Z,94631.00
2023-12-23T09:04:22.377Z,94628.00
2023-12-23T09:05:22.485Z,94615.00
2023-12-23T09:06:22.475Z,94591.00
2023-12-23T09:07:22.362Z,94600.00
2023-12-23T09:08:22.412Z,94614.00
2023-12-23T09:09:22.331Z,94601.00
2023-12-23T09:10:22.324Z,94583.00
2023-12-23T09:11:22.469Z,94574.00
2023-12-23T09:12:22.391Z,94597.00
2023-12-23T09:13:22.588Z,94603.00
2023-12-23T09:14:22.403Z,94596.00
2023-12-23T09:15:22.275Z,94573.00
2023-12-23T09:16:22.274Z,94579.00
2023-12-23T09:17:22.403Z,94589.00
2023-12-23T09:18:22.290Z,94586.00
2023-12-23T09:19:22.296Z,94589.00
2023-12-23T09:20:22.338Z,94583.00
2023-12-23T09:21:22.224Z,94591.00
2023-12-23T09:22:22.216Z,94604.00
2023-12-23T09:23:22.238Z,94603.00
2023-12-23T09:24:22.207Z,94596.00
2023-12-23T09:25:22.206Z,94587.00
2023-12-23T09:26:22.268Z,94598.00
2023-12-23T09:27:22.184Z,94601.00
2023-12-23T09:28:22.206Z,94604.00
2023-12-23T09:29:22.227Z,94594.00
2023-12-23T09:30:22.197Z,94598.00
2023-12-23T09:31:22.139Z,94610.00
2023-12-23T09:32:22.182Z,94593.00
2023-12-23T09:33:22.180Z,94579.00
2023-12-23T09:34:22.115Z,94597.00
2023-12-23T09:35:22.137Z,94599.00
2023-12-23T09:36:22.094Z,94590.00
2023-12-23T09:37:22.095Z,94588.00
2023-12-23T09:38:22.114Z,94592.00
2023-12-23T09:39:22.080Z,94594.00
2023-12-23T09:40:22.071Z,94594.00
2023-12-23T09:41:22.061Z,94586.00
2023-12-23T09:42:24.218Z,94582.00
2023-12-23T09:43:22.035Z,94587.00
2023-12-23T09:44:22.130Z,94572.00
2023-12-23T09:45:22.016Z,94573.00
2023-12-23T09:46:22.010Z,94587.00
2023-12-23T09:47:22.112Z,94590.00
2023-12-23T09:48:22.084Z,94586.00
2023-12-23T09:49:22.110Z,94582.00
2023-12-23T09:50:21.999Z,94585.00
2023-12-23T09:51:21.960Z,94583.00
2023-12-23T09:52:21.963Z,94590.00
2023-12-23T09:53:21.996Z,94597.00
2023-12-23T09:54:21.998Z,94597.00
2023-12-23T09:55:21.937Z,94595.00
2023-12-23T09:56:21.980Z,94599.00
2023-12-23T09:57:21.912Z,94605.00
2023-12-23T09:58:21.894Z,94599.00
2023-12-23T09:59:21.981Z,94593.00
2023-12-23T10:00:21.909Z,94588.00
2023-12-23T10:01:21.925Z,94583.00
2023-12-23T10:02:21.966Z,94578.00
2023-12-23T10:03:21.908Z,94588.00
2023-12-23T10:04:21.842Z,94586.00
2023-12-23T10:05:21.903Z,94578.00
2023-12-23T10:06:22.688Z,94582.00
2023-12-23T10:07:21.820Z,94589.00
2023-12-23T10:08:21.859Z,94579.00
2023-12-23T10:09:21.794Z,94567.00
2023-12-23T10:10:21.794Z,94572.00
2023-12-23T10:11:21.989Z,94581.00
2023-12-23T10:12:21.776Z,94575.00
2023-12-23T10:13:21.764Z,94560.00
2023-12-23T10:14:21.798Z,94560.00
2023-12-23T10:15:21.769Z,94560.00
2023-12-23T10:16:21.762Z,94565.00
2023-12-23T10:17:21.773Z,94559.00
2023-12-23T10:18:21.798Z,94555.00
2023-12-23T10:19:21.825Z,94560.00
2023-12-23T10:20:21.862Z,94566.00
2023-12-23T10:21:21.688Z,94566.00
2023-12-23T10:22:21.678Z,94569.00
2023-12-23T10:23:21.746Z,94557.00
2023-12-23T10:24:21.662Z,94561.00
2023-12-23T10:25:21.654Z,94573.00
2023-12-23T10:26:21.755Z,94561.00
2023-12-23T10:27:21.658Z,94550.00
2023-12-23T10:28:21.624Z,94554.00
2023-12-23T10:29:21.640Z,94567.00
2023-12-23T10:30:21.803Z,94577.00
2023-12-23T10:31:21.597Z,94553.00
2023-12-23T10:32:21.687Z,94537.00
2023-12-23T10:33:21.634Z,94539.00
2023-12-23T10:34:21.664Z,94548.00
2023-12-23T10:35:21.600Z,94555.00
2023-12-23T10:36:21.545Z,94553.00
2023-12-23T10:37:21.587Z,94546.00
2023-12-23T10:38:21.690Z,94532.00
2023-12-23T10:39:22.056Z,94523.00
2023-12-23T10:40:21.514Z,94524.00
2023-12-23T10:41:21.858Z,94528.00
2023-12-23T10:42:21.562Z,94536.00
2023-12-23T10:43:21.484Z,94545.00
2023-12-23T10:44:21.512Z,94538.00
2023-12-23T10:45:21.482Z,94525.00
2023-12-23T10:46:21.465Z,94521.00
2023-12-23T10:47:21.581Z,94535.00
2023-12-23T10:48:21.590Z,94531.00
2023-12-23T10:49:21.510Z,94526.00
2023-12-23T10:50:21.481Z,94531.00
2023-12-23T10:51:21.419Z,94533.00
2023-12-23T10:52:21.408Z,94536.00
2023-12-23T10:53:21.435Z,94526.00
2023-12-23T10:54:21.393Z,94530.00
2023-12-23T10:55:21.373Z,94538.00
2023-12-23T10:56:21.396Z,94531.00
2023-12-23T10:57:21.361Z,94521.00
2023-12-23T10:58:21.350Z,94524.00
2023-12-23T10:59:21.458Z,94536.00
2023-12-23T11:00:21.331Z,94539.00
2023-12-23T11:01:21.328Z,94528.00
2023-12-23T11:02:21.354Z,94524.00
2023-12-23T11:03:22.088Z,94526.00
2023-12-23T11:04:21.315Z,94532.00
2023-12-23T11:05:21.318Z,94522.00
2023-12-23T11:06:21.450Z,94517.00
2023-12-23T11:07:21.278Z,94517.00
2023-12-23T11:08:21.344Z,94533.00
2023-12-23T11:09:21.249Z,94542.00
2023-12-23T11:10:21.241Z,94523.00
2023-12-23T11:11:21.310Z,94520.00
2023-12-23T11:12:21.231Z,94518.00
2023-12-23T11:13:21.224Z,94508.00
2023-12-23T11:14:21.228Z,94513.00
2023-12-23T11:15:21.235Z,94508.00
2023-12-23T11:16:21.187Z,94502.00
2023-12-23T11:17:21.246Z,94513.00
2023-12-23T11:18:21.317Z,94522.00
2023-12-23T11:19:21.194Z,94521.00
2023-12-23T11:20:21.235Z,94512.00
2023-12-23T11:21:21.138Z,94504.00
2023-12-23T11:22:21.135Z,94502.00
2023-12-23T11:23:21.157Z,94509.00
2023-12-23T11:24:21.117Z,94511.00
2023-12-23T11:25:21.151Z,94510.00
2023-12-23T11:26:21.110Z,94512.00
2023-12-23T11:27:21.081Z,94525.00
2023-12-23T11:28:21.108Z,94524.00
2023-12-23T11:29:21.094Z,94506.00
2023-12-23T11:30:21.084Z,94506.00
2023-12-23T11:31:21.052Z,94517.00
2023-12-23T11:32:21.158Z,94515.00
2023-12-23T11:33:21.251Z,94498.00
2023-12-23T11:34:21.114Z,94490.00
2023-12-23T11:35:21.095Z,94493.00
2023-12-23T11:36:21.030Z,94490.00
2023-12-23T11:37:20.997Z,94493.00
2023-12-23T11:38:21.026Z,94484.00
2023-12-23T11:39:20.973Z,94475.00
2023-12-23T11:40:20.981Z,94462.00
2023-12-23T11:41:20.986Z,94475.00
2023-12-23T11:42:20.956Z,94486.00
2023-12-23T11:43:20.944Z,94476.00
2023-12-23T11:44:20.963Z,94476.00
2023-12-23T11:45:21.014Z,94486.00
2023-12-23T11:46:20.912Z,94493.00
2023-12-23T11:47:20.935Z,94495.00
2023-12-23T11:48:20.957Z,94482.00
2023-12-23T11:49:21.670Z,94480.00
2023-12-23T11:50:20.935Z,94476.00
2023-12-23T11:51:20.871Z,94481.00
2023-12-23T11:52:20.884Z,94488.00
2023-12-23T11:53:20.966Z,94492.00
2023-12-23T11:54:20.845Z,94492.00
2023-12-23T11:55:20.851Z,94495.00
2023-12-23T11:56:20.874Z,94500.00
2023-12-23T11:57:20.814Z,94496.00
2023-12-23T11:58:20.816Z,94485.00
2023-12-23T11:59:20.838Z,94489.00
2023-12-23T12:00:20.805Z,94480.00
2023-12-23T12:01:20.832Z,94473.00
2023-12-23T12:02:20.810Z,94476.00
2023-12-23T12:03:20.790Z,94475.00
2023-12-23T12:04:20.814Z,94479.00
2023-12-23T12:05:20.859Z,94485.00
2023-12-23T12:06:20.825Z,94492.00
2023-12-23T12:07:20.740Z,94486.00
2023-12-23T12:08:20.792Z,94476.00
2023-12-23T12:09:20.711Z,94462.00
2023-12-23T12:10:20.705Z,94445.00
2023-12-23T12:11:20.740Z,94446.00
2023-12-23T12:12:20.682Z,94453.00
2023-12-23T12:13:20.674Z,94460.00
2023-12-23T12:14:20.751Z,94458.00
2023-12-23T12:15:20.651Z,94451.00
2023-12-23T12:16:20.640Z,94452.00
2023-12-23T12:17:20.789Z,94455.00
2023-12-23T12:18:20.706Z,94448.00
2023-12-23T12:19:20.672Z,94447.00
2023-12-23T12:20:20.670Z,94447.00
2023-12-23T12:21:20.618Z,94443.00
2023-12-23T12:22:20.591Z,94446.00
2023-12-23T12:23:20.659Z,94453.00
2023-12-23T12:24:20.595Z,94451.00
2023-12-23T12:25:20.562Z,94447.00
2023-12-23T12:26:20.605Z,94443.00
2023-12-23T12:27:20.554Z,94442.00
2023-12-23T12:28:20.545Z,94451.00
2023-12-23T12:29:20.586Z,94463.00
2023-12-23T12:30:20.563Z,94461.00
2023-12-23T12:31:20.510Z,94460.00
2023-12-23T12:32:20.537Z,94462.00
2023-12-23T12:33:20.685Z,94469.00
2023-12-23T12:34:20.535Z,94473.00